ソウル/仁川 の空港の天気 - METARとTAF

仁川国際空港 ( RKSI / ICN ) - 韓国 仁川広域市 (ソウル特別市近郊)
飛行場実況気象(Metar)
観測時間01/24 21:00 KST (01/24 12:00 UTC)
風向・風速北 2m/s
視程10km以上
天気現象
なし
気温1℃
湿度64%
気圧1031hPa
METARRKSI 241200Z 36003KT 340V050 CAVOK 01/M05 Q1031 NOSIG
過去の天気等 Google飛行場航空写真 Wunderground天気予報

過去48時間のMETAR

飛行場予報(TAF)
発表時間: 1/24 20:00 KST (1/24 11:00 UTC)
予報対象時間: 24日21時 KST ~ 26日3時 KST
風向・風速北北西 3m/s
視程8000m
少しの雲 雲底高度 910m
全天の4割程度の雲 雲底高度 5490m
24日23時 KST ~ 24日24時 KST に徐々に
風向・風速北北東 3m/s
視程4200m
天気現象もや
25日11時 KST ~ 25日12時 KST に徐々に
風向・風速北北西 3m/s
視程6000m
天気現象運行に影響にある天気現象が終了
なし
26日2時 KST ~ 26日3時 KST に徐々に
風向・風速北北東 3m/s
視程4200m
天気現象もや
TAF RKSI 241100Z 2412/2518 34005KT 8000 FEW030 SCT180 TN01/2418Z TX08/2506Z
BECMG 2414/2415 02005KT 4200 BR
BECMG 2502/2503 34006KT 6000 NSW NSC
BECMG 2517/2518 03005KT 4200 BR